sensor_id;sensor_type;location;lat;lon;timestamp;P1;durP1;ratioP1;P2;durP2;ratioP2
60100;SDS011;45978;53.646;55.930;2022-07-21T00:00:26;5.15;;;2.33;;
60100;SDS011;45978;53.646;55.930;2022-07-21T00:01:28;3.58;;;1.85;;
60100;SDS011;45978;53.646;55.930;2022-07-21T00:02:29;3.25;;;2.05;;
60100;SDS011;45978;53.646;55.930;2022-07-21T00:03:31;2.38;;;2.20;;
60100;SDS011;45978;53.646;55.930;2022-07-21T00:04:32;2.33;;;2.13;;
60100;SDS011;45978;53.646;55.930;2022-07-21T00:05:33;3.33;;;2.00;;
60100;SDS011;45978;53.646;55.930;2022-07-21T00:06:35;1.90;;;1.80;;
60100;SDS011;45978;53.646;55.930;2022-07-21T00:07:36;3.65;;;1.77;;
60100;SDS011;45978;53.646;55.930;2022-07-21T00:08:39;2.20;;;1.85;;
60100;SDS011;45978;53.646;55.930;2022-07-21T00:09:41;2.80;;;2.08;;
60100;SDS011;45978;53.646;55.930;2022-07-21T00:10:42;2.10;;;2.00;;
60100;SDS011;45978;53.646;55.930;2022-07-21T00:11:43;5.88;;;2.13;;
60100;SDS011;45978;53.646;55.930;2022-07-21T00:12:45;2.30;;;2.05;;
60100;SDS011;45978;53.646;55.930;2022-07-21T00:13:46;8.52;;;2.30;;
60100;SDS011;45978;53.646;55.930;2022-07-21T00:14:48;4.82;;;2.25;;
60100;SDS011;45978;53.646;55.930;2022-07-21T00:15:49;6.07;;;1.92;;
60100;SDS011;45978;53.646;55.930;2022-07-21T00:16:52;2.30;;;2.00;;
60100;SDS011;45978;53.646;55.930;2022-07-21T00:17:54;3.08;;;2.00;;
60100;SDS011;45978;53.646;55.930;2022-07-21T00:18:55;4.35;;;1.98;;
60100;SDS011;45978;53.646;55.930;2022-07-21T00:19:56;3.42;;;1.90;;
60100;SDS011;45978;53.646;55.930;2022-07-21T00:20:58;7.53;;;2.35;;
60100;SDS011;45978;53.646;55.930;2022-07-21T00:22:00;8.40;;;2.15;;
60100;SDS011;45978;53.646;55.930;2022-07-21T00:23:02;3.80;;;2.00;;
60100;SDS011;45978;53.646;55.930;2022-07-21T00:24:04;8.55;;;2.03;;
60100;SDS011;45978;53.646;55.930;2022-07-21T00:25:06;3.55;;;2.03;;
60100;SDS011;45978;53.646;55.930;2022-07-21T00:26:08;4.38;;;2.25;;
60100;SDS011;45978;53.646;55.930;2022-07-21T00:27:10;5.72;;;2.10;;
60100;SDS011;45978;53.646;55.930;2022-07-21T00:28:11;7.85;;;2.15;;
60100;SDS011;45978;53.646;55.930;2022-07-21T00:29:12;5.38;;;2.47;;
60100;SDS011;45978;53.646;55.930;2022-07-21T00:30:13;5.43;;;2.17;;
60100;SDS011;45978;53.646;55.930;2022-07-21T00:31:15;3.78;;;2.10;;
60100;SDS011;45978;53.646;55.930;2022-07-21T00:32:17;8.27;;;2.20;;
60100;SDS011;45978;53.646;55.930;2022-07-21T00:33:18;2.78;;;2.10;;
60100;SDS011;45978;53.646;55.930;2022-07-21T00:34:19;4.43;;;2.08;;
60100;SDS011;45978;53.646;55.930;2022-07-21T00:35:20;2.58;;;2.30;;
60100;SDS011;45978;53.646;55.930;2022-07-21T00:36:22;6.50;;;3.28;;
60100;SDS011;45978;53.646;55.930;2022-07-21T00:37:23;4.80;;;2.33;;
60100;SDS011;45978;53.646;55.930;2022-07-21T00:38:25;2.65;;;2.13;;
60100;SDS011;45978;53.646;55.930;2022-07-21T00:39:28;3.55;;;2.08;;
60100;SDS011;45978;53.646;55.930;2022-07-21T00:40:30;7.80;;;2.50;;
60100;SDS011;45978;53.646;55.930;2022-07-21T00:41:31;6.45;;;2.67;;
60100;SDS011;45978;53.646;55.930;2022-07-21T00:42:35;5.50;;;2.35;;
60100;SDS011;45978;53.646;55.930;2022-07-21T00:43:37;3.25;;;2.28;;
60100;SDS011;45978;53.646;55.930;2022-07-21T00:44:38;4.50;;;2.50;;
60100;SDS011;45978;53.646;55.930;2022-07-21T00:45:39;3.63;;;2.70;;
60100;SDS011;45978;53.646;55.930;2022-07-21T00:46:40;2.60;;;2.40;;
60100;SDS011;45978;53.646;55.930;2022-07-21T00:47:43;7.07;;;2.80;;
60100;SDS011;45978;53.646;55.930;2022-07-21T00:48:48;5.47;;;2.63;;
60100;SDS011;45978;53.646;55.930;2022-07-21T00:49:51;3.90;;;2.58;;
60100;SDS011;45978;53.646;55.930;2022-07-21T00:50:53;4.18;;;2.10;;
60100;SDS011;45978;53.646;55.930;2022-07-21T00:51:55;8.30;;;2.83;;
60100;SDS011;45978;53.646;55.930;2022-07-21T00:52:56;4.43;;;2.38;;
60100;SDS011;45978;53.646;55.930;2022-07-21T00:53:57;5.15;;;2.58;;
60100;SDS011;45978;53.646;55.930;2022-07-21T00:54:59;2.92;;;2.60;;
60100;SDS011;45978;53.646;55.930;2022-07-21T00:56:00;7.63;;;2.45;;
60100;SDS011;45978;53.646;55.930;2022-07-21T00:57:02;5.00;;;2.15;;
60100;SDS011;45978;53.646;55.930;2022-07-21T00:58:03;4.25;;;2.33;;
60100;SDS011;45978;53.646;55.930;2022-07-21T00:59:05;5.65;;;2.30;;
60100;SDS011;45978;53.646;55.930;2022-07-21T01:00:08;6.20;;;2.40;;
60100;SDS011;45978;53.646;55.930;2022-07-21T01:01:13;4.00;;;2.15;;
60100;SDS011;45978;53.646;55.930;2022-07-21T01:02:14;2.92;;;2.08;;
60100;SDS011;45978;53.646;55.930;2022-07-21T01:03:16;5.55;;;3.05;;
60100;SDS011;45978;53.646;55.930;2022-07-21T01:04:17;9.27;;;2.30;;
60100;SDS011;45978;53.646;55.930;2022-07-21T01:05:20;2.85;;;2.20;;
60100;SDS011;45978;53.646;55.930;2022-07-21T01:06:25;6.10;;;2.30;;
60100;SDS011;45978;53.646;55.930;2022-07-21T01:07:27;5.85;;;2.15;;
60100;SDS011;45978;53.646;55.930;2022-07-21T01:08:30;5.30;;;2.30;;
60100;SDS011;45978;53.646;55.930;2022-07-21T01:09:32;4.75;;;2.10;;
60100;SDS011;45978;53.646;55.930;2022-07-21T01:10:34;3.65;;;2.13;;
60100;SDS011;45978;53.646;55.930;2022-07-21T01:11:37;3.80;;;2.00;;
60100;SDS011;45978;53.646;55.930;2022-07-21T01:12:40;3.05;;;2.00;;
60100;SDS011;45978;53.646;55.930;2022-07-21T01:13:42;2.15;;;1.92;;
60100;SDS011;45978;53.646;55.930;2022-07-21T01:14:44;5.00;;;2.45;;
60100;SDS011;45978;53.646;55.930;2022-07-21T01:15:45;4.25;;;2.10;;
60100;SDS011;45978;53.646;55.930;2022-07-21T01:16:47;4.28;;;1.92;;
60100;SDS011;45978;53.646;55.930;2022-07-21T01:17:49;4.45;;;2.20;;
60100;SDS011;45978;53.646;55.930;2022-07-21T01:18:51;2.00;;;1.90;;
60100;SDS011;45978;53.646;55.930;2022-07-21T01:19:52;4.50;;;2.00;;
60100;SDS011;45978;53.646;55.930;2022-07-21T01:20:54;3.95;;;1.80;;
60100;SDS011;45978;53.646;55.930;2022-07-21T01:21:56;5.72;;;2.20;;
60100;SDS011;45978;53.646;55.930;2022-07-21T01:22:57;4.70;;;2.13;;
60100;SDS011;45978;53.646;55.930;2022-07-21T01:23:59;4.45;;;2.08;;
60100;SDS011;45978;53.646;55.930;2022-07-21T01:25:01;8.05;;;2.17;;
60100;SDS011;45978;53.646;55.930;2022-07-21T01:26:02;8.05;;;2.78;;
60100;SDS011;45978;53.646;55.930;2022-07-21T01:27:04;3.78;;;2.60;;
60100;SDS011;45978;53.646;55.930;2022-07-21T01:28:05;6.40;;;2.90;;
60100;SDS011;45978;53.646;55.930;2022-07-21T01:29:06;10.77;;;5.53;;
60100;SDS011;45978;53.646;55.930;2022-07-21T01:30:09;7.22;;;3.55;;
60100;SDS011;45978;53.646;55.930;2022-07-21T01:31:11;8.45;;;3.20;;
60100;SDS011;45978;53.646;55.930;2022-07-21T01:32:13;12.30;;;3.35;;
60100;SDS011;45978;53.646;55.930;2022-07-21T01:33:15;10.60;;;3.38;;
60100;SDS011;45978;53.646;55.930;2022-07-21T01:34:17;10.95;;;3.53;;
60100;SDS011;45978;53.646;55.930;2022-07-21T01:35:21;3.40;;;3.08;;
60100;SDS011;45978;53.646;55.930;2022-07-21T01:36:22;14.43;;;3.28;;
60100;SDS011;45978;53.646;55.930;2022-07-21T01:37:28;13.82;;;3.40;;
60100;SDS011;45978;53.646;55.930;2022-07-21T01:38:31;11.48;;;3.58;;
60100;SDS011;45978;53.646;55.930;2022-07-21T01:39:50;4.90;;;3.35;;
60100;SDS011;45978;53.646;55.930;2022-07-21T01:41:10;4.13;;;3.40;;
60100;SDS011;45978;53.646;55.930;2022-07-21T01:42:29;6.22;;;3.55;;
60100;SDS011;45978;53.646;55.930;2022-07-21T01:43:30;7.30;;;3.42;;
60100;SDS011;45978;53.646;55.930;2022-07-21T01:44:32;18.52;;;3.70;;
60100;SDS011;45978;53.646;55.930;2022-07-21T01:45:33;7.90;;;3.67;;
60100;SDS011;45978;53.646;55.930;2022-07-21T01:46:36;8.32;;;3.42;;
60100;SDS011;45978;53.646;55.930;2022-07-21T01:47:44;4.75;;;3.50;;
60100;SDS011;45978;53.646;55.930;2022-07-21T01:48:45;8.23;;;3.38;;
60100;SDS011;45978;53.646;55.930;2022-07-21T01:49:46;8.05;;;3.25;;
60100;SDS011;45978;53.646;55.930;2022-07-21T01:50:48;10.10;;;3.70;;
60100;SDS011;45978;53.646;55.930;2022-07-21T01:51:49;9.07;;;3.22;;
60100;SDS011;45978;53.646;55.930;2022-07-21T01:52:52;6.35;;;3.33;;
60100;SDS011;45978;53.646;55.930;2022-07-21T01:53:58;7.60;;;3.10;;
60100;SDS011;45978;53.646;55.930;2022-07-21T01:54:59;9.07;;;3.00;;
60100;SDS011;45978;53.646;55.930;2022-07-21T01:56:00;8.52;;;2.95;;
60100;SDS011;45978;53.646;55.930;2022-07-21T01:57:02;11.73;;;3.05;;
60100;SDS011;45978;53.646;55.930;2022-07-21T01:58:03;8.52;;;2.50;;
60100;SDS011;45978;53.646;55.930;2022-07-21T01:59:05;5.70;;;2.55;;
60100;SDS011;45978;53.646;55.930;2022-07-21T02:00:07;9.65;;;2.90;;
60100;SDS011;45978;53.646;55.930;2022-07-21T02:01:09;7.00;;;2.85;;
60100;SDS011;45978;53.646;55.930;2022-07-21T02:02:13;6.65;;;2.20;;
60100;SDS011;45978;53.646;55.930;2022-07-21T02:03:15;7.00;;;3.20;;
60100;SDS011;45978;53.646;55.930;2022-07-21T02:04:18;8.32;;;2.40;;
60100;SDS011;45978;53.646;55.930;2022-07-21T02:05:19;7.85;;;2.90;;
60100;SDS011;45978;53.646;55.930;2022-07-21T02:06:21;16.35;;;2.83;;
60100;SDS011;45978;53.646;55.930;2022-07-21T02:07:22;8.80;;;2.85;;
60100;SDS011;45978;53.646;55.930;2022-07-21T02:08:23;4.70;;;2.50;;
60100;SDS011;45978;53.646;55.930;2022-07-21T02:09:27;8.13;;;2.80;;
60100;SDS011;45978;53.646;55.930;2022-07-21T02:10:28;8.43;;;2.95;;
60100;SDS011;45978;53.646;55.930;2022-07-21T02:11:30;12.68;;;2.60;;
60100;SDS011;45978;53.646;55.930;2022-07-21T02:12:32;6.55;;;2.47;;
60100;SDS011;45978;53.646;55.930;2022-07-21T02:13:35;7.70;;;2.78;;
60100;SDS011;45978;53.646;55.930;2022-07-21T02:14:37;7.90;;;2.30;;
60100;SDS011;45978;53.646;55.930;2022-07-21T02:15:39;4.25;;;2.20;;
60100;SDS011;45978;53.646;55.930;2022-07-21T02:16:40;16.10;;;2.65;;
60100;SDS011;45978;53.646;55.930;2022-07-21T02:17:42;6.47;;;2.50;;
60100;SDS011;45978;53.646;55.930;2022-07-21T02:18:44;10.50;;;2.55;;
60100;SDS011;45978;53.646;55.930;2022-07-21T02:19:45;12.02;;;2.35;;
60100;SDS011;45978;53.646;55.930;2022-07-21T02:20:46;12.48;;;2.13;;
60100;SDS011;45978;53.646;55.930;2022-07-21T02:21:48;8.15;;;2.45;;
60100;SDS011;45978;53.646;55.930;2022-07-21T02:22:49;12.50;;;2.90;;
60100;SDS011;45978;53.646;55.930;2022-07-21T02:23:51;6.78;;;2.47;;
60100;SDS011;45978;53.646;55.930;2022-07-21T02:24:52;7.68;;;2.35;;
60100;SDS011;45978;53.646;55.930;2022-07-21T02:25:54;4.22;;;3.03;;
60100;SDS011;45978;53.646;55.930;2022-07-21T02:26:57;12.32;;;2.63;;
60100;SDS011;45978;53.646;55.930;2022-07-21T02:27:59;3.45;;;2.00;;
60100;SDS011;45978;53.646;55.930;2022-07-21T02:29:00;7.95;;;2.05;;
60100;SDS011;45978;53.646;55.930;2022-07-21T02:30:02;9.30;;;2.03;;
60100;SDS011;45978;53.646;55.930;2022-07-21T02:31:08;5.13;;;1.90;;
60100;SDS011;45978;53.646;55.930;2022-07-21T02:32:09;8.77;;;2.35;;
60100;SDS011;45978;53.646;55.930;2022-07-21T02:33:11;8.50;;;2.22;;
60100;SDS011;45978;53.646;55.930;2022-07-21T02:34:40;6.03;;;2.60;;
60100;SDS011;45978;53.646;55.930;2022-07-21T02:35:43;9.00;;;2.10;;
60100;SDS011;45978;53.646;55.930;2022-07-21T02:36:44;7.85;;;2.30;;
60100;SDS011;45978;53.646;55.930;2022-07-21T02:37:47;4.65;;;2.10;;
60100;SDS011;45978;53.646;55.930;2022-07-21T02:38:48;10.30;;;2.30;;
60100;SDS011;45978;53.646;55.930;2022-07-21T02:39:51;9.85;;;2.22;;
60100;SDS011;45978;53.646;55.930;2022-07-21T02:40:52;13.88;;;2.75;;
60100;SDS011;45978;53.646;55.930;2022-07-21T02:41:53;5.80;;;2.40;;
60100;SDS011;45978;53.646;55.930;2022-07-21T02:42:54;4.70;;;2.20;;
60100;SDS011;45978;53.646;55.930;2022-07-21T02:43:55;13.88;;;2.30;;
60100;SDS011;45978;53.646;55.930;2022-07-21T02:44:56;5.28;;;2.63;;
60100;SDS011;45978;53.646;55.930;2022-07-21T02:45:57;3.00;;;2.25;;
60100;SDS011;45978;53.646;55.930;2022-07-21T02:46:59;10.00;;;2.40;;
60100;SDS011;45978;53.646;55.930;2022-07-21T02:48:01;7.25;;;2.20;;
60100;SDS011;45978;53.646;55.930;2022-07-21T02:49:09;6.57;;;2.03;;
60100;SDS011;45978;53.646;55.930;2022-07-21T02:50:11;7.38;;;2.65;;
60100;SDS011;45978;53.646;55.930;2022-07-21T02:51:13;6.43;;;2.22;;
60100;SDS011;45978;53.646;55.930;2022-07-21T02:52:14;14.95;;;2.22;;
60100;SDS011;45978;53.646;55.930;2022-07-21T02:53:17;9.75;;;2.47;;
60100;SDS011;45978;53.646;55.930;2022-07-21T02:54:20;4.38;;;2.17;;
60100;SDS011;45978;53.646;55.930;2022-07-21T02:55:21;4.85;;;2.47;;
60100;SDS011;45978;53.646;55.930;2022-07-21T02:56:22;2.90;;;2.00;;
60100;SDS011;45978;53.646;55.930;2022-07-21T02:57:23;12.60;;;2.33;;
60100;SDS011;45978;53.646;55.930;2022-07-21T02:58:25;10.77;;;2.10;;
60100;SDS011;45978;53.646;55.930;2022-07-21T02:59:27;10.75;;;2.80;;
60100;SDS011;45978;53.646;55.930;2022-07-21T03:00:28;9.55;;;2.10;;
60100;SDS011;45978;53.646;55.930;2022-07-21T03:01:30;9.93;;;2.00;;
60100;SDS011;45978;53.646;55.930;2022-07-21T03:02:31;4.07;;;2.28;;
60100;SDS011;45978;53.646;55.930;2022-07-21T03:03:34;10.52;;;2.50;;
60100;SDS011;45978;53.646;55.930;2022-07-21T03:04:36;3.60;;;2.50;;
60100;SDS011;45978;53.646;55.930;2022-07-21T03:05:38;6.43;;;2.20;;
60100;SDS011;45978;53.646;55.930;2022-07-21T03:06:39;7.30;;;2.25;;
60100;SDS011;45978;53.646;55.930;2022-07-21T03:07:41;6.18;;;2.40;;
60100;SDS011;45978;53.646;55.930;2022-07-21T03:08:42;2.97;;;2.20;;
60100;SDS011;45978;53.646;55.930;2022-07-21T03:09:44;8.27;;;2.40;;
60100;SDS011;45978;53.646;55.930;2022-07-21T03:10:46;5.38;;;2.42;;
60100;SDS011;45978;53.646;55.930;2022-07-21T03:11:48;8.05;;;2.55;;
60100;SDS011;45978;53.646;55.930;2022-07-21T03:12:49;9.77;;;2.38;;
60100;SDS011;45978;53.646;55.930;2022-07-21T03:13:50;10.73;;;2.35;;
60100;SDS011;45978;53.646;55.930;2022-07-21T03:14:51;16.98;;;2.63;;
60100;SDS011;45978;53.646;55.930;2022-07-21T03:15:53;6.70;;;2.33;;
60100;SDS011;45978;53.646;55.930;2022-07-21T03:16:54;15.70;;;2.47;;
60100;SDS011;45978;53.646;55.930;2022-07-21T03:17:58;7.20;;;2.22;;
60100;SDS011;45978;53.646;55.930;2022-07-21T03:18:59;8.35;;;2.17;;
60100;SDS011;45978;53.646;55.930;2022-07-21T03:20:00;9.30;;;2.42;;
60100;SDS011;45978;53.646;55.930;2022-07-21T03:21:01;2.85;;;2.03;;
60100;SDS011;45978;53.646;55.930;2022-07-21T03:22:03;4.22;;;2.30;;
60100;SDS011;45978;53.646;55.930;2022-07-21T03:23:04;13.75;;;2.20;;
60100;SDS011;45978;53.646;55.930;2022-07-21T03:24:06;10.95;;;2.60;;
60100;SDS011;45978;53.646;55.930;2022-07-21T03:25:07;8.18;;;2.40;;
60100;SDS011;45978;53.646;55.930;2022-07-21T03:26:12;5.53;;;2.40;;
60100;SDS011;45978;53.646;55.930;2022-07-21T03:27:15;8.98;;;2.47;;
60100;SDS011;45978;53.646;55.930;2022-07-21T03:28:16;10.80;;;3.05;;
60100;SDS011;45978;53.646;55.930;2022-07-21T03:29:17;8.93;;;2.92;;
60100;SDS011;45978;53.646;55.930;2022-07-21T03:30:19;9.88;;;2.88;;
60100;SDS011;45978;53.646;55.930;2022-07-21T03:31:22;16.15;;;2.92;;
60100;SDS011;45978;53.646;55.930;2022-07-21T03:32:23;18.02;;;3.65;;
60100;SDS011;45978;53.646;55.930;2022-07-21T03:33:24;29.30;;;3.85;;
60100;SDS011;45978;53.646;55.930;2022-07-21T03:34:25;18.42;;;3.10;;
60100;SDS011;45978;53.646;55.930;2022-07-21T03:35:26;15.45;;;3.25;;
60100;SDS011;45978;53.646;55.930;2022-07-21T03:36:28;12.05;;;3.45;;
60100;SDS011;45978;53.646;55.930;2022-07-21T03:37:29;17.38;;;3.10;;
60100;SDS011;45978;53.646;55.930;2022-07-21T03:38:40;11.27;;;3.13;;
60100;SDS011;45978;53.646;55.930;2022-07-21T03:39:41;10.82;;;2.75;;
60100;SDS011;45978;53.646;55.930;2022-07-21T03:40:42;12.07;;;3.63;;
60100;SDS011;45978;53.646;55.930;2022-07-21T03:41:43;12.20;;;3.33;;
60100;SDS011;45978;53.646;55.930;2022-07-21T03:42:44;31.30;;;8.23;;
60100;SDS011;45978;53.646;55.930;2022-07-21T03:45:08;5.20;;;2.78;;
60100;SDS011;45978;53.646;55.930;2022-07-21T03:46:10;11.13;;;2.92;;
60100;SDS011;45978;53.646;55.930;2022-07-21T03:47:11;7.22;;;2.95;;
60100;SDS011;45978;53.646;55.930;2022-07-21T03:48:15;16.23;;;2.85;;
60100;SDS011;45978;53.646;55.930;2022-07-21T03:49:18;13.15;;;2.67;;
60100;SDS011;45978;53.646;55.930;2022-07-21T03:50:21;4.32;;;2.80;;
60100;SDS011;45978;53.646;55.930;2022-07-21T03:51:27;8.70;;;3.08;;
60100;SDS011;45978;53.646;55.930;2022-07-21T03:52:30;8.15;;;2.88;;
60100;SDS011;45978;53.646;55.930;2022-07-21T03:53:31;9.55;;;2.85;;
60100;SDS011;45978;53.646;55.930;2022-07-21T03:54:34;4.28;;;2.75;;
60100;SDS011;45978;53.646;55.930;2022-07-21T03:55:37;3.33;;;3.03;;
60100;SDS011;45978;53.646;55.930;2022-07-21T03:56:40;8.77;;;3.30;;
60100;SDS011;45978;53.646;55.930;2022-07-21T03:57:43;9.20;;;3.30;;
60100;SDS011;45978;53.646;55.930;2022-07-21T03:58:46;7.15;;;2.97;;
60100;SDS011;45978;53.646;55.930;2022-07-21T03:59:48;10.65;;;3.60;;
60100;SDS011;45978;53.646;55.930;2022-07-21T04:00:50;13.55;;;3.70;;
60100;SDS011;45978;53.646;55.930;2022-07-21T04:01:51;12.90;;;4.35;;
60100;SDS011;45978;53.646;55.930;2022-07-21T04:02:54;3.58;;;2.53;;
60100;SDS011;45978;53.646;55.930;2022-07-21T04:03:56;8.05;;;3.28;;
60100;SDS011;45978;53.646;55.930;2022-07-21T04:04:57;8.32;;;3.60;;
60100;SDS011;45978;53.646;55.930;2022-07-21T04:05:59;5.57;;;3.03;;
60100;SDS011;45978;53.646;55.930;2022-07-21T04:07:00;4.97;;;3.08;;
60100;SDS011;45978;53.646;55.930;2022-07-21T04:08:01;7.53;;;3.53;;
60100;SDS011;45978;53.646;55.930;2022-07-21T04:09:03;11.13;;;3.40;;
60100;SDS011;45978;53.646;55.930;2022-07-21T04:10:05;6.18;;;3.03;;
60100;SDS011;45978;53.646;55.930;2022-07-21T04:11:06;4.78;;;3.35;;
60100;SDS011;45978;53.646;55.930;2022-07-21T04:12:08;14.77;;;3.83;;
60100;SDS011;45978;53.646;55.930;2022-07-21T04:13:12;8.77;;;3.30;;
60100;SDS011;45978;53.646;55.930;2022-07-21T04:14:14;5.75;;;3.60;;
60100;SDS011;45978;53.646;55.930;2022-07-21T04:15:16;8.52;;;3.63;;
60100;SDS011;45978;53.646;55.930;2022-07-21T04:16:18;4.57;;;3.10;;
60100;SDS011;45978;53.646;55.930;2022-07-21T04:17:19;5.47;;;2.88;;
60100;SDS011;45978;53.646;55.930;2022-07-21T04:18:21;12.20;;;3.38;;
60100;SDS011;45978;53.646;55.930;2022-07-21T04:19:22;10.27;;;3.67;;
60100;SDS011;45978;53.646;55.930;2022-07-21T04:20:23;4.93;;;2.80;;
60100;SDS011;45978;53.646;55.930;2022-07-21T04:21:24;11.00;;;2.97;;
60100;SDS011;45978;53.646;55.930;2022-07-21T04:22:26;7.20;;;2.63;;
60100;SDS011;45978;53.646;55.930;2022-07-21T04:23:27;6.38;;;2.83;;
60100;SDS011;45978;53.646;55.930;2022-07-21T04:24:28;5.93;;;2.85;;
60100;SDS011;45978;53.646;55.930;2022-07-21T04:25:30;3.58;;;2.63;;
60100;SDS011;45978;53.646;55.930;2022-07-21T04:26:31;4.13;;;2.67;;
60100;SDS011;45978;53.646;55.930;2022-07-21T04:27:32;4.80;;;2.60;;
60100;SDS011;45978;53.646;55.930;2022-07-21T04:28:34;8.02;;;2.90;;
60100;SDS011;45978;53.646;55.930;2022-07-21T04:29:35;3.67;;;2.83;;
60100;SDS011;45978;53.646;55.930;2022-07-21T04:30:37;6.53;;;2.70;;
60100;SDS011;45978;53.646;55.930;2022-07-21T04:31:38;5.97;;;2.67;;
60100;SDS011;45978;53.646;55.930;2022-07-21T04:32:48;4.65;;;2.63;;
60100;SDS011;45978;53.646;55.930;2022-07-21T04:33:49;5.53;;;2.78;;
60100;SDS011;45978;53.646;55.930;2022-07-21T04:34:50;4.93;;;2.70;;
60100;SDS011;45978;53.646;55.930;2022-07-21T04:35:54;3.60;;;2.85;;
60100;SDS011;45978;53.646;55.930;2022-07-21T04:36:55;10.18;;;3.22;;
60100;SDS011;45978;53.646;55.930;2022-07-21T04:37:56;8.52;;;3.00;;
60100;SDS011;45978;53.646;55.930;2022-07-21T04:38:57;5.78;;;3.03;;
60100;SDS011;45978;53.646;55.930;2022-07-21T04:39:58;9.85;;;3.35;;
60100;SDS011;45978;53.646;55.930;2022-07-21T04:41:00;4.55;;;3.08;;
60100;SDS011;45978;53.646;55.930;2022-07-21T04:42:01;8.00;;;3.35;;
60100;SDS011;45978;53.646;55.930;2022-07-21T04:43:05;6.72;;;3.20;;
60100;SDS011;45978;53.646;55.930;2022-07-21T04:44:06;4.05;;;3.25;;
60100;SDS011;45978;53.646;55.930;2022-07-21T04:45:08;5.88;;;3.47;;
60100;SDS011;45978;53.646;55.930;2022-07-21T04:46:11;5.07;;;2.97;;
60100;SDS011;45978;53.646;55.930;2022-07-21T04:47:12;10.18;;;3.50;;
60100;SDS011;45978;53.646;55.930;2022-07-21T04:48:13;5.68;;;2.80;;
60100;SDS011;45978;53.646;55.930;2022-07-21T04:49:19;9.68;;;3.45;;
60100;SDS011;45978;53.646;55.930;2022-07-21T04:50:26;8.48;;;3.33;;
60100;SDS011;45978;53.646;55.930;2022-07-21T04:51:30;6.30;;;3.42;;
60100;SDS011;45978;53.646;55.930;2022-07-21T04:52:33;10.25;;;3.00;;
60100;SDS011;45978;53.646;55.930;2022-07-21T04:53:34;4.05;;;3.03;;
60100;SDS011;45978;53.646;55.930;2022-07-21T04:54:35;4.10;;;3.17;;
60100;SDS011;45978;53.646;55.930;2022-07-21T04:55:39;7.13;;;3.08;;
60100;SDS011;45978;53.646;55.930;2022-07-21T04:56:41;11.88;;;3.30;;
60100;SDS011;45978;53.646;55.930;2022-07-21T04:57:45;7.47;;;3.67;;
60100;SDS011;45978;53.646;55.930;2022-07-21T04:58:48;5.88;;;2.83;;
60100;SDS011;45978;53.646;55.930;2022-07-21T04:59:49;4.85;;;2.80;;
60100;SDS011;45978;53.646;55.930;2022-07-21T05:00:51;6.25;;;3.03;;
60100;SDS011;45978;53.646;55.930;2022-07-21T05:01:53;7.00;;;2.67;;
60100;SDS011;45978;53.646;55.930;2022-07-21T05:03:00;8.55;;;3.53;;
60100;SDS011;45978;53.646;55.930;2022-07-21T05:04:02;6.45;;;3.28;;
60100;SDS011;45978;53.646;55.930;2022-07-21T05:05:04;5.35;;;3.30;;
60100;SDS011;45978;53.646;55.930;2022-07-21T05:06:06;5.40;;;3.40;;
60100;SDS011;45978;53.646;55.930;2022-07-21T05:07:07;3.72;;;3.35;;
60100;SDS011;45978;53.646;55.930;2022-07-21T05:08:08;5.90;;;3.88;;
60100;SDS011;45978;53.646;55.930;2022-07-21T05:09:09;6.05;;;3.67;;
60100;SDS011;45978;53.646;55.930;2022-07-21T05:10:12;8.57;;;3.55;;
60100;SDS011;45978;53.646;55.930;2022-07-21T05:11:15;3.65;;;2.85;;
60100;SDS011;45978;53.646;55.930;2022-07-21T05:12:16;5.88;;;3.03;;
60100;SDS011;45978;53.646;55.930;2022-07-21T05:13:19;10.00;;;3.80;;
60100;SDS011;45978;53.646;55.930;2022-07-21T05:14:23;4.95;;;3.00;;
60100;SDS011;45978;53.646;55.930;2022-07-21T05:15:24;6.50;;;3.30;;
60100;SDS011;45978;53.646;55.930;2022-07-21T05:16:26;7.25;;;3.55;;
60100;SDS011;45978;53.646;55.930;2022-07-21T05:17:33;4.25;;;3.30;;
60100;SDS011;45978;53.646;55.930;2022-07-21T05:18:36;9.10;;;2.65;;
60100;SDS011;45978;53.646;55.930;2022-07-21T05:19:37;6.47;;;2.58;;
60100;SDS011;45978;53.646;55.930;2022-07-21T05:20:38;7.22;;;2.60;;
60100;SDS011;45978;53.646;55.930;2022-07-21T05:21:39;4.75;;;2.45;;
60100;SDS011;45978;53.646;55.930;2022-07-21T05:22:42;5.28;;;2.40;;
60100;SDS011;45978;53.646;55.930;2022-07-21T05:23:43;4.05;;;2.15;;
60100;SDS011;45978;53.646;55.930;2022-07-21T05:24:46;4.13;;;2.30;;
60100;SDS011;45978;53.646;55.930;2022-07-21T05:25:48;2.22;;;2.08;;
60100;SDS011;45978;53.646;55.930;2022-07-21T05:26:49;9.20;;;2.30;;
60100;SDS011;45978;53.646;55.930;2022-07-21T05:27:50;4.30;;;2.67;;
60100;SDS011;45978;53.646;55.930;2022-07-21T05:28:52;6.10;;;2.28;;
60100;SDS011;45978;53.646;55.930;2022-07-21T05:29:56;6.70;;;2.33;;
60100;SDS011;45978;53.646;55.930;2022-07-21T05:30:57;7.32;;;2.50;;
60100;SDS011;45978;53.646;55.930;2022-07-21T05:32:00;4.78;;;1.95;;
60100;SDS011;45978;53.646;55.930;2022-07-21T05:33:01;7.82;;;2.13;;
60100;SDS011;45978;53.646;55.930;2022-07-21T05:34:02;2.20;;;2.00;;
60100;SDS011;45978;53.646;55.930;2022-07-21T05:35:03;6.47;;;2.00;;
60100;SDS011;45978;53.646;55.930;2022-07-21T05:36:11;4.30;;;1.90;;
60100;SDS011;45978;53.646;55.930;2022-07-21T05:37:12;4.60;;;2.35;;
60100;SDS011;45978;53.646;55.930;2022-07-21T05:38:17;8.13;;;2.17;;
60100;SDS011;45978;53.646;55.930;2022-07-21T05:39:19;5.10;;;2.03;;
60100;SDS011;45978;53.646;55.930;2022-07-21T05:40:20;9.88;;;2.20;;
60100;SDS011;45978;53.646;55.930;2022-07-21T05:41:21;6.45;;;1.70;;
60100;SDS011;45978;53.646;55.930;2022-07-21T05:42:22;6.63;;;1.40;;
60100;SDS011;45978;53.646;55.930;2022-07-21T05:43:26;1.95;;;1.30;;
60100;SDS011;45978;53.646;55.930;2022-07-21T05:44:27;2.03;;;1.45;;
60100;SDS011;45978;53.646;55.930;2022-07-21T05:45:28;6.65;;;1.30;;
60100;SDS011;45978;53.646;55.930;2022-07-21T05:46:30;2.38;;;1.30;;
60100;SDS011;45978;53.646;55.930;2022-07-21T05:47:32;1.77;;;1.40;;
60100;SDS011;45978;53.646;55.930;2022-07-21T05:48:33;2.17;;;1.52;;
60100;SDS011;45978;53.646;55.930;2022-07-21T05:49:34;3.85;;;1.65;;
60100;SDS011;45978;53.646;55.930;2022-07-21T05:50:35;7.85;;;1.65;;
60100;SDS011;45978;53.646;55.930;2022-07-21T05:51:37;3.20;;;1.73;;
60100;SDS011;45978;53.646;55.930;2022-07-21T05:52:38;6.20;;;1.60;;
60100;SDS011;45978;53.646;55.930;2022-07-21T05:53:40;7.60;;;1.45;;
60100;SDS011;45978;53.646;55.930;2022-07-21T05:54:41;1.80;;;1.50;;
60100;SDS011;45978;53.646;55.930;2022-07-21T05:55:42;2.85;;;1.55;;
60100;SDS011;45978;53.646;55.930;2022-07-21T05:56:44;4.07;;;1.75;;
60100;SDS011;45978;53.646;55.930;2022-07-21T05:57:45;9.93;;;2.10;;
60100;SDS011;45978;53.646;55.930;2022-07-21T05:58:46;5.40;;;2.05;;
60100;SDS011;45978;53.646;55.930;2022-07-21T05:59:48;7.57;;;2.05;;
60100;SDS011;45978;53.646;55.930;2022-07-21T06:00:51;6.35;;;1.77;;
60100;SDS011;45978;53.646;55.930;2022-07-21T06:02:16;7.85;;;2.00;;
60100;SDS011;45978;53.646;55.930;2022-07-21T06:03:18;5.60;;;1.70;;
60100;SDS011;45978;53.646;55.930;2022-07-21T06:04:20;9.15;;;2.03;;
60100;SDS011;45978;53.646;55.930;2022-07-21T06:05:22;2.38;;;1.90;;
60100;SDS011;45978;53.646;55.930;2022-07-21T06:06:24;4.70;;;1.70;;
60100;SDS011;45978;53.646;55.930;2022-07-21T06:07:25;4.93;;;2.08;;
60100;SDS011;45978;53.646;55.930;2022-07-21T06:08:27;5.60;;;1.70;;
60100;SDS011;45978;53.646;55.930;2022-07-21T06:09:31;9.45;;;1.83;;
60100;SDS011;45978;53.646;55.930;2022-07-21T06:10:32;2.95;;;1.33;;